sensor_id;sensor_type;location;lat;lon;timestamp;pressure;altitude;pressure_sealevel;temperature;humidity
10618;BME280;5356;43.526;26.534;2023-02-28T00:02:20;99937.38;;;8.43;100.00
10618;BME280;5356;43.526;26.534;2023-02-28T00:04:45;99942.06;;;8.41;100.00
10618;BME280;5356;43.526;26.534;2023-02-28T00:07:18;99951.50;;;8.44;100.00
10618;BME280;5356;43.526;26.534;2023-02-28T00:09:44;99953.47;;;8.57;100.00
10618;BME280;5356;43.526;26.534;2023-02-28T00:12:09;99952.53;;;8.64;100.00
10618;BME280;5356;43.526;26.534;2023-02-28T00:14:40;99949.50;;;8.67;100.00
10618;BME280;5356;43.526;26.534;2023-02-28T00:17:05;99960.50;;;8.64;100.00
10618;BME280;5356;43.526;26.534;2023-02-28T00:19:31;99958.47;;;8.66;100.00
10618;BME280;5356;43.526;26.534;2023-02-28T00:21:56;99966.06;;;8.69;100.00
10618;BME280;5356;43.526;26.534;2023-02-28T00:24:21;99969.94;;;8.67;100.00
10618;BME280;5356;43.526;26.534;2023-02-28T00:26:47;99972.59;;;8.52;100.00
10618;BME280;5356;43.526;26.534;2023-02-28T00:29:12;99967.88;;;8.32;100.00
10618;BME280;5356;43.526;26.534;2023-02-28T00:31:38;99978.22;;;8.42;100.00
10618;BME280;5356;43.526;26.534;2023-02-28T00:34:06;99973.09;;;8.41;100.00
10618;BME280;5356;43.526;26.534;2023-02-28T00:36:31;99980.44;;;8.39;100.00
10618;BME280;5356;43.526;26.534;2023-02-28T00:38:57;99997.25;;;8.31;100.00
10618;BME280;5356;43.526;26.534;2023-02-28T00:41:22;99995.78;;;8.28;100.00
10618;BME280;5356;43.526;26.534;2023-02-28T00:43:48;99995.41;;;8.17;100.00
10618;BME280;5356;43.526;26.534;2023-02-28T00:46:13;99980.31;;;8.17;100.00
10618;BME280;5356;43.526;26.534;2023-02-28T00:48:39;99977.50;;;8.19;100.00
10618;BME280;5356;43.526;26.534;2023-02-28T00:51:05;99983.44;;;8.06;100.00
10618;BME280;5356;43.526;26.534;2023-02-28T00:53:30;99991.59;;;8.04;100.00
10618;BME280;5356;43.526;26.534;2023-02-28T00:55:57;99989.28;;;8.16;100.00
10618;BME280;5356;43.526;26.534;2023-02-28T00:58:23;99984.00;;;8.16;100.00
10618;BME280;5356;43.526;26.534;2023-02-28T01:00:50;99982.69;;;8.12;100.00
10618;BME280;5356;43.526;26.534;2023-02-28T01:03:17;99971.09;;;8.13;100.00
10618;BME280;5356;43.526;26.534;2023-02-28T01:05:46;99973.56;;;8.00;100.00
10618;BME280;5356;43.526;26.534;2023-02-28T01:08:15;99979.31;;;8.03;100.00
10618;BME280;5356;43.526;26.534;2023-02-28T01:10:41;99980.97;;;8.04;100.00
10618;BME280;5356;43.526;26.534;2023-02-28T01:13:07;99984.09;;;8.08;100.00
10618;BME280;5356;43.526;26.534;2023-02-28T01:15:32;99982.34;;;8.00;100.00
10618;BME280;5356;43.526;26.534;2023-02-28T01:17:58;99987.72;;;7.92;100.00
10618;BME280;5356;43.526;26.534;2023-02-28T01:20:24;99988.75;;;8.06;100.00
10618;BME280;5356;43.526;26.534;2023-02-28T01:22:49;99983.41;;;8.21;100.00
10618;BME280;5356;43.526;26.534;2023-02-28T01:25:15;99986.81;;;8.15;100.00
10618;BME280;5356;43.526;26.534;2023-02-28T01:27:41;99986.63;;;8.16;100.00
10618;BME280;5356;43.526;26.534;2023-02-28T01:30:07;99984.25;;;8.21;100.00
10618;BME280;5356;43.526;26.534;2023-02-28T01:32:33;99981.84;;;8.26;100.00
10618;BME280;5356;43.526;26.534;2023-02-28T01:34:58;99978.97;;;8.21;100.00
10618;BME280;5356;43.526;26.534;2023-02-28T01:37:24;99972.72;;;8.14;100.00
10618;BME280;5356;43.526;26.534;2023-02-28T01:39:49;99971.59;;;8.23;100.00
10618;BME280;5356;43.526;26.534;2023-02-28T01:42:15;99962.72;;;8.31;100.00
10618;BME280;5356;43.526;26.534;2023-02-28T01:45:03;99954.59;;;8.32;100.00
10618;BME280;5356;43.526;26.534;2023-02-28T01:47:36;99961.72;;;8.32;100.00
10618;BME280;5356;43.526;26.534;2023-02-28T01:50:06;99959.09;;;8.47;100.00
10618;BME280;5356;43.526;26.534;2023-02-28T01:52:32;99954.59;;;8.32;100.00
10618;BME280;5356;43.526;26.534;2023-02-28T01:55:01;99958.88;;;8.33;100.00
10618;BME280;5356;43.526;26.534;2023-02-28T01:57:34;99957.34;;;8.24;100.00
10618;BME280;5356;43.526;26.534;2023-02-28T02:00:09;99964.84;;;8.06;100.00
10618;BME280;5356;43.526;26.534;2023-02-28T02:02:36;99972.19;;;8.19;100.00
10618;BME280;5356;43.526;26.534;2023-02-28T02:05:23;99969.31;;;8.20;100.00
10618;BME280;5356;43.526;26.534;2023-02-28T02:08:03;99975.66;;;8.19;100.00
10618;BME280;5356;43.526;26.534;2023-02-28T02:10:36;99966.31;;;8.08;100.00
10618;BME280;5356;43.526;26.534;2023-02-28T02:18:57;99987.63;;;8.00;100.00
10618;BME280;5356;43.526;26.534;2023-02-28T02:27:36;100001.34;;;7.89;100.00
10618;BME280;5356;43.526;26.534;2023-02-28T02:35:43;100010.13;;;7.90;100.00
10618;BME280;5356;43.526;26.534;2023-02-28T02:38:31;100007.69;;;7.88;100.00
10618;BME280;5356;43.526;26.534;2023-02-28T02:46:32;100019.97;;;7.66;100.00
10618;BME280;5356;43.526;26.534;2023-02-28T02:49:01;100016.69;;;7.64;100.00
10618;BME280;5356;43.526;26.534;2023-02-28T02:51:30;100013.97;;;7.72;100.00
10618;BME280;5356;43.526;26.534;2023-02-28T02:54:04;100023.97;;;7.85;100.00
10618;BME280;5356;43.526;26.534;2023-02-28T02:56:33;100035.09;;;7.80;100.00
10618;BME280;5356;43.526;26.534;2023-02-28T02:59:03;100033.06;;;7.68;100.00
10618;BME280;5356;43.526;26.534;2023-02-28T03:01:31;100044.16;;;7.71;100.00
10618;BME280;5356;43.526;26.534;2023-02-28T03:04:00;100046.38;;;7.82;100.00
10618;BME280;5356;43.526;26.534;2023-02-28T03:06:28;100053.22;;;7.92;100.00
10618;BME280;5356;43.526;26.534;2023-02-28T03:08:53;100052.41;;;7.91;100.00
10618;BME280;5356;43.526;26.534;2023-02-28T03:11:19;100049.81;;;7.68;100.00
10618;BME280;5356;43.526;26.534;2023-02-28T03:22:59;100041.66;;;7.32;100.00
10618;BME280;5356;43.526;26.534;2023-02-28T03:25:09;100045.47;;;7.29;100.00
10618;BME280;5356;43.526;26.534;2023-02-28T03:27:48;100048.81;;;7.46;100.00
10618;BME280;5356;43.526;26.534;2023-02-28T03:30:24;100049.78;;;7.53;100.00
10618;BME280;5356;43.526;26.534;2023-02-28T03:33:07;100050.81;;;7.44;100.00
10618;BME280;5356;43.526;26.534;2023-02-28T03:35:39;100061.78;;;7.41;100.00
10618;BME280;5356;43.526;26.534;2023-02-28T03:41:05;100071.06;;;7.22;100.00
10618;BME280;5356;43.526;26.534;2023-02-28T03:43:35;100069.94;;;7.16;100.00
10618;BME280;5356;43.526;26.534;2023-02-28T03:46:07;100073.25;;;7.10;100.00
10618;BME280;5356;43.526;26.534;2023-02-28T03:48:44;100058.72;;;7.06;100.00
10618;BME280;5356;43.526;26.534;2023-02-28T03:51:13;100053.41;;;7.06;100.00
10618;BME280;5356;43.526;26.534;2023-02-28T03:53:47;100051.00;;;6.96;100.00
10618;BME280;5356;43.526;26.534;2023-02-28T03:56:18;100067.34;;;6.77;100.00
10618;BME280;5356;43.526;26.534;2023-02-28T04:01:35;100075.88;;;6.87;100.00
10618;BME280;5356;43.526;26.534;2023-02-28T04:04:02;100066.97;;;6.80;100.00
10618;BME280;5356;43.526;26.534;2023-02-28T04:06:30;100056.59;;;6.70;100.00
10618;BME280;5356;43.526;26.534;2023-02-28T04:08:56;100056.47;;;6.64;100.00
10618;BME280;5356;43.526;26.534;2023-02-28T04:11:25;100059.47;;;6.61;100.00
10618;BME280;5356;43.526;26.534;2023-02-28T04:13:52;100055.44;;;6.65;100.00
10618;BME280;5356;43.526;26.534;2023-02-28T04:16:18;100064.72;;;6.69;100.00
10618;BME280;5356;43.526;26.534;2023-02-28T04:18:44;100070.31;;;6.74;100.00
10618;BME280;5356;43.526;26.534;2023-02-28T04:21:11;100063.56;;;6.71;100.00
10618;BME280;5356;43.526;26.534;2023-02-28T04:23:37;100065.53;;;6.69;100.00
10618;BME280;5356;43.526;26.534;2023-02-28T04:26:03;100072.63;;;6.77;100.00
10618;BME280;5356;43.526;26.534;2023-02-28T04:28:29;100069.59;;;6.88;100.00
10618;BME280;5356;43.526;26.534;2023-02-28T04:31:00;100065.44;;;6.94;100.00
10618;BME280;5356;43.526;26.534;2023-02-28T04:33:26;100049.50;;;7.02;100.00
10618;BME280;5356;43.526;26.534;2023-02-28T04:36:03;100056.06;;;7.06;100.00
10618;BME280;5356;43.526;26.534;2023-02-28T04:38:33;100061.47;;;7.13;100.00
10618;BME280;5356;43.526;26.534;2023-02-28T04:40:59;100070.09;;;7.15;100.00
10618;BME280;5356;43.526;26.534;2023-02-28T04:43:29;100058.56;;;7.08;100.00
10618;BME280;5356;43.526;26.534;2023-02-28T04:45:56;100070.44;;;7.12;100.00
10618;BME280;5356;43.526;26.534;2023-02-28T04:48:23;100077.28;;;7.29;100.00
10618;BME280;5356;43.526;26.534;2023-02-28T04:50:49;100078.59;;;7.33;100.00
10618;BME280;5356;43.526;26.534;2023-02-28T04:53:15;100078.88;;;7.38;100.00
10618;BME280;5356;43.526;26.534;2023-02-28T04:55:40;100079.81;;;7.46;100.00
10618;BME280;5356;43.526;26.534;2023-02-28T04:58:06;100077.28;;;7.29;100.00
10618;BME280;5356;43.526;26.534;2023-02-28T05:00:31;100086.59;;;7.25;100.00
10618;BME280;5356;43.526;26.534;2023-02-28T05:02:57;100096.03;;;7.28;100.00
10618;BME280;5356;43.526;26.534;2023-02-28T05:05:22;100087.63;;;7.16;100.00
10618;BME280;5356;43.526;26.534;2023-02-28T05:07:48;100093.72;;;7.25;100.00
10618;BME280;5356;43.526;26.534;2023-02-28T05:10:13;100091.59;;;7.20;100.00
10618;BME280;5356;43.526;26.534;2023-02-28T05:12:38;100101.59;;;7.79;100.00
10618;BME280;5356;43.526;26.534;2023-02-28T05:15:04;100104.44;;;7.77;100.00
10618;BME280;5356;43.526;26.534;2023-02-28T05:17:30;100107.00;;;7.48;100.00
10618;BME280;5356;43.526;26.534;2023-02-28T05:19:56;100116.94;;;7.46;100.00
10618;BME280;5356;43.526;26.534;2023-02-28T05:22:22;100120.19;;;7.56;100.00
10618;BME280;5356;43.526;26.534;2023-02-28T05:24:47;100125.00;;;7.52;100.00
10618;BME280;5356;43.526;26.534;2023-02-28T05:27:13;100121.53;;;7.52;100.00
10618;BME280;5356;43.526;26.534;2023-02-28T05:29:38;100121.00;;;7.79;100.00
10618;BME280;5356;43.526;26.534;2023-02-28T05:32:11;100104.88;;;8.19;100.00
10618;BME280;5356;43.526;26.534;2023-02-28T05:34:38;100117.88;;;8.28;100.00
10618;BME280;5356;43.526;26.534;2023-02-28T05:37:04;100127.31;;;8.16;100.00
10618;BME280;5356;43.526;26.534;2023-02-28T05:39:30;100125.91;;;8.05;100.00
10618;BME280;5356;43.526;26.534;2023-02-28T05:41:55;100146.03;;;8.00;100.00
10618;BME280;5356;43.526;26.534;2023-02-28T05:44:20;100131.84;;;7.93;100.00
10618;BME280;5356;43.526;26.534;2023-02-28T05:46:46;100137.38;;;7.83;100.00
10618;BME280;5356;43.526;26.534;2023-02-28T05:49:11;100129.41;;;7.83;100.00
10618;BME280;5356;43.526;26.534;2023-02-28T05:51:37;100131.66;;;7.71;100.00
10618;BME280;5356;43.526;26.534;2023-02-28T05:54:05;100134.06;;;7.81;100.00
10618;BME280;5356;43.526;26.534;2023-02-28T05:56:32;100119.91;;;7.88;100.00
10618;BME280;5356;43.526;26.534;2023-02-28T05:58:59;100119.59;;;7.69;100.00
10618;BME280;5356;43.526;26.534;2023-02-28T06:01:35;100113.81;;;7.65;100.00
10618;BME280;5356;43.526;26.534;2023-02-28T06:04:03;100125.19;;;7.51;100.00
10618;BME280;5356;43.526;26.534;2023-02-28T06:06:29;100123.75;;;7.63;100.00
10618;BME280;5356;43.526;26.534;2023-02-28T06:08:55;100124.22;;;7.67;100.00
10618;BME280;5356;43.526;26.534;2023-02-28T06:11:21;100128.25;;;7.62;100.00
10618;BME280;5356;43.526;26.534;2023-02-28T06:13:46;100133.44;;;7.56;100.00
10618;BME280;5356;43.526;26.534;2023-02-28T06:16:12;100136.41;;;7.53;100.00
10618;BME280;5356;43.526;26.534;2023-02-28T06:18:38;100134.28;;;7.56;100.00
10618;BME280;5356;43.526;26.534;2023-02-28T06:21:04;100138.09;;;7.54;100.00
10618;BME280;5356;43.526;26.534;2023-02-28T06:23:29;100136.06;;;7.33;100.00
10618;BME280;5356;43.526;26.534;2023-02-28T06:25:55;100135.84;;;7.42;100.00
10618;BME280;5356;43.526;26.534;2023-02-28T06:28:24;100135.16;;;7.17;100.00
10618;BME280;5356;43.526;26.534;2023-02-28T06:30:49;100128.09;;;7.02;100.00
10618;BME280;5356;43.526;26.534;2023-02-28T06:33:15;100129.03;;;7.17;100.00
10618;BME280;5356;43.526;26.534;2023-02-28T06:35:44;100129.16;;;7.24;100.00
10618;BME280;5356;43.526;26.534;2023-02-28T06:38:09;100123.09;;;7.15;100.00
10618;BME280;5356;43.526;26.534;2023-02-28T06:40:36;100127.69;;;7.21;100.00
10618;BME280;5356;43.526;26.534;2023-02-28T06:43:02;100124.81;;;7.31;100.00
10618;BME280;5356;43.526;26.534;2023-02-28T06:45:28;100128.66;;;7.28;100.00
10618;BME280;5356;43.526;26.534;2023-02-28T06:47:54;100136.25;;;7.31;100.00
10618;BME280;5356;43.526;26.534;2023-02-28T06:50:19;100128.06;;;7.41;100.00
10618;BME280;5356;43.526;26.534;2023-02-28T06:52:46;100124.06;;;7.45;100.00
10618;BME280;5356;43.526;26.534;2023-02-28T06:55:11;100118.78;;;7.45;100.00
10618;BME280;5356;43.526;26.534;2023-02-28T06:57:37;100128.34;;;7.46;100.00
10618;BME280;5356;43.526;26.534;2023-02-28T07:00:08;100123.25;;;7.45;100.00
10618;BME280;5356;43.526;26.534;2023-02-28T07:02:38;100127.50;;;7.54;100.00
10618;BME280;5356;43.526;26.534;2023-02-28T07:05:06;100129.66;;;7.50;100.00
10618;BME280;5356;43.526;26.534;2023-02-28T07:07:31;100130.19;;;7.46;100.00
10618;BME280;5356;43.526;26.534;2023-02-28T07:09:57;100130.00;;;7.47;100.00
10618;BME280;5356;43.526;26.534;2023-02-28T07:12:23;100131.97;;;7.53;100.00
10618;BME280;5356;43.526;26.534;2023-02-28T07:14:48;100125.81;;;7.53;100.00
10618;BME280;5356;43.526;26.534;2023-02-28T07:17:14;100129.19;;;7.47;100.00
10618;BME280;5356;43.526;26.534;2023-02-28T07:19:39;100133.25;;;7.57;100.00
10618;BME280;5356;43.526;26.534;2023-02-28T07:22:05;100128.91;;;7.64;100.00
10618;BME280;5356;43.526;26.534;2023-02-28T07:24:31;100131.56;;;7.64;100.00
10618;BME280;5356;43.526;26.534;2023-02-28T07:26:57;100139.09;;;7.76;100.00
10618;BME280;5356;43.526;26.534;2023-02-28T07:29:22;100136.66;;;7.89;100.00
10618;BME280;5356;43.526;26.534;2023-02-28T07:31:48;100141.13;;;7.88;100.00
10618;BME280;5356;43.526;26.534;2023-02-28T07:34:15;100151.59;;;7.90;100.00
10618;BME280;5356;43.526;26.534;2023-02-28T07:36:41;100142.44;;;7.93;100.00
10618;BME280;5356;43.526;26.534;2023-02-28T07:39:06;100153.53;;;7.96;100.00
10618;BME280;5356;43.526;26.534;2023-02-28T07:41:34;100161.66;;;7.95;100.00
10618;BME280;5356;43.526;26.534;2023-02-28T07:44:02;100156.19;;;7.96;100.00
10618;BME280;5356;43.526;26.534;2023-02-28T07:46:28;100162.22;;;8.05;100.00
10618;BME280;5356;43.526;26.534;2023-02-28T07:49:00;100154.94;;;8.07;100.00
10618;BME280;5356;43.526;26.534;2023-02-28T07:51:28;100150.56;;;7.91;100.00
10618;BME280;5356;43.526;26.534;2023-02-28T07:53:54;100153.28;;;7.83;100.00
10618;BME280;5356;43.526;26.534;2023-02-28T07:56:19;100148.69;;;7.77;100.00
10618;BME280;5356;43.526;26.534;2023-02-28T07:58:45;100155.63;;;7.78;100.00
10618;BME280;5356;43.526;26.534;2023-02-28T08:01:11;100154.88;;;7.69;100.00
10618;BME280;5356;43.526;26.534;2023-02-28T08:03:38;100158.47;;;7.76;100.00
10618;BME280;5356;43.526;26.534;2023-02-28T08:06:05;100157.53;;;7.92;100.00
10618;BME280;5356;43.526;26.534;2023-02-28T08:08:31;100157.47;;;7.77;100.00
10618;BME280;5356;43.526;26.534;2023-02-28T08:11:01;100158.47;;;7.76;100.00
10618;BME280;5356;43.526;26.534;2023-02-28T08:13:29;100167.91;;;7.79;100.00
10618;BME280;5356;43.526;26.534;2023-02-28T08:15:55;100167.06;;;7.78;100.00
10618;BME280;5356;43.526;26.534;2023-02-28T08:18:22;100161.72;;;7.86;100.00
10618;BME280;5356;43.526;26.534;2023-02-28T08:20:48;100169.66;;;7.86;100.00
10618;BME280;5356;43.526;26.534;2023-02-28T08:23:14;100160.13;;;7.77;100.00
10618;BME280;5356;43.526;26.534;2023-02-28T08:25:39;100165.25;;;7.79;100.00
10618;BME280;5356;43.526;26.534;2023-02-28T08:28:05;100168.50;;;7.89;100.00
10618;BME280;5356;43.526;26.534;2023-02-28T08:30:31;100167.91;;;8.02;100.00
10618;BME280;5356;43.526;26.534;2023-02-28T08:32:56;100162.97;;;7.99;100.00
10618;BME280;5356;43.526;26.534;2023-02-28T08:35:22;100160.31;;;7.99;100.00
10618;BME280;5356;43.526;26.534;2023-02-28T08:37:48;100155.16;;;7.97;100.00
10618;BME280;5356;43.526;26.534;2023-02-28T08:40:14;100155.72;;;7.93;100.00
10618;BME280;5356;43.526;26.534;2023-02-28T08:42:46;100160.22;;;8.07;100.00
10618;BME280;5356;43.526;26.534;2023-02-28T08:45:13;100158.28;;;8.01;100.00
10618;BME280;5356;43.526;26.534;2023-02-28T08:47:39;100153.63;;;8.03;100.00
10618;BME280;5356;43.526;26.534;2023-02-28T08:50:05;100159.16;;;8.16;100.00
10618;BME280;5356;43.526;26.534;2023-02-28T08:52:30;100148.47;;;8.24;100.00
10618;BME280;5356;43.526;26.534;2023-02-28T08:54:56;100147.34;;;8.19;100.00
10618;BME280;5356;43.526;26.534;2023-02-28T08:57:21;100153.84;;;8.16;100.00
10618;BME280;5356;43.526;26.534;2023-02-28T08:59:47;100152.38;;;8.14;100.00
10618;BME280;5356;43.526;26.534;2023-02-28T09:02:13;100149.22;;;8.33;100.00
10618;BME280;5356;43.526;26.534;2023-02-28T09:04:40;100148.50;;;8.39;100.00
10618;BME280;5356;43.526;26.534;2023-02-28T09:07:05;100149.53;;;8.53;100.00
10618;BME280;5356;43.526;26.534;2023-02-28T09:09:31;100154.56;;;8.63;100.00
10618;BME280;5356;43.526;26.534;2023-02-28T09:11:56;100145.03;;;8.68;100.00
10618;BME280;5356;43.526;26.534;2023-02-28T09:14:22;100149.16;;;8.71;100.00
10618;BME280;5356;43.526;26.534;2023-02-28T09:16:48;100146.94;;;8.74;100.00
10618;BME280;5356;43.526;26.534;2023-02-28T09:19:14;100160.88;;;8.76;100.00
10618;BME280;5356;43.526;26.534;2023-02-28T09:21:40;100152.81;;;8.85;100.00
10618;BME280;5356;43.526;26.534;2023-02-28T09:24:05;100155.31;;;8.86;100.00
10618;BME280;5356;43.526;26.534;2023-02-28T09:26:31;100153.84;;;8.84;100.00
10618;BME280;5356;43.526;26.534;2023-02-28T09:28:56;100147.44;;;8.78;100.00
10618;BME280;5356;43.526;26.534;2023-02-28T09:31:26;100149.16;;;8.86;100.00
10618;BME280;5356;43.526;26.534;2023-02-28T09:33:53;100153.75;;;8.92;100.00
10618;BME280;5356;43.526;26.534;2023-02-28T09:36:20;100160.78;;;8.85;100.00
10618;BME280;5356;43.526;26.534;2023-02-28T09:38:46;100165.09;;;8.86;100.00
10618;BME280;5356;43.526;26.534;2023-02-28T09:41:19;100154.66;;;8.84;100.00
10618;BME280;5356;43.526;26.534;2023-02-28T09:43:47;100157.56;;;8.74;100.00
10618;BME280;5356;43.526;26.534;2023-02-28T09:46:32;100155.38;;;8.63;100.00
10618;BME280;5356;43.526;26.534;2023-02-28T09:49:01;100151.66;;;8.72;100.00
10618;BME280;5356;43.526;26.534;2023-02-28T09:51:45;100148.88;;;8.66;100.00
10618;BME280;5356;43.526;26.534;2023-02-28T09:54:19;100144.66;;;8.71;100.00
10618;BME280;5356;43.526;26.534;2023-02-28T09:56:59;100144.03;;;8.69;100.00
10618;BME280;5356;43.526;26.534;2023-02-28T10:08:36;100142.56;;;8.82;100.00
10618;BME280;5356;43.526;26.534;2023-02-28T10:11:09;100140.06;;;8.80;100.00
10618;BME280;5356;43.526;26.534;2023-02-28T10:17:00;100146.38;;;8.94;100.00
10618;BME280;5356;43.526;26.534;2023-02-28T10:22:01;100150.06;;;8.93;100.00
10618;BME280;5356;43.526;26.534;2023-02-28T10:24:33;100142.44;;;9.05;100.00
10618;BME280;5356;43.526;26.534;2023-02-28T10:27:10;100140.31;;;9.00;100.00
10618;BME280;5356;43.526;26.534;2023-02-28T10:29:40;100137.16;;;8.90;100.00
10618;BME280;5356;43.526;26.534;2023-02-28T10:32:11;100139.97;;;9.03;100.00
10618;BME280;5356;43.526;26.534;2023-02-28T10:34:38;100135.00;;;9.00;100.00
10618;BME280;5356;43.526;26.534;2023-02-28T10:37:03;100126.94;;;9.08;100.00
10618;BME280;5356;43.526;26.534;2023-02-28T10:39:42;100121.50;;;9.16;100.00
10618;BME280;5356;43.526;26.534;2023-02-28T10:42:23;100121.34;;;9.18;100.00
10618;BME280;5356;43.526;26.534;2023-02-28T10:45:14;100118.25;;;9.14;100.00
10618;BME280;5356;43.526;26.534;2023-02-28T10:47:55;100106.53;;;9.09;100.00
10618;BME280;5356;43.526;26.534;2023-02-28T10:50:51;100106.59;;;9.15;100.00
10618;BME280;5356;43.526;26.534;2023-02-28T11:01:37;100110.50;;;9.19;100.00
10618;BME280;5356;43.526;26.534;2023-02-28T11:04:36;100106.75;;;9.29;100.00
10618;BME280;5356;43.526;26.534;2023-02-28T11:09:39;100104.25;;;9.27;100.00
10618;BME280;5356;43.526;26.534;2023-02-28T11:12:07;100098.38;;;9.32;100.00
10618;BME280;5356;43.526;26.534;2023-02-28T11:14:49;100098.38;;;9.32;100.00
10618;BME280;5356;43.526;26.534;2023-02-28T11:17:20;100092.31;;;9.38;100.00
10618;BME280;5356;43.526;26.534;2023-02-28T11:19:50;100088.50;;;9.47;100.00
10618;BME280;5356;43.526;26.534;2023-02-28T11:22:19;100090.09;;;9.41;100.00
10618;BME280;5356;43.526;26.534;2023-02-28T11:24:50;100085.66;;;9.27;100.00
10618;BME280;5356;43.526;26.534;2023-02-28T11:27:43;100090.53;;;9.24;100.00
10618;BME280;5356;43.526;26.534;2023-02-28T11:30:37;100083.59;;;9.08;100.00
10618;BME280;5356;43.526;26.534;2023-02-28T11:36:24;100086.94;;;8.80;100.00
10618;BME280;5356;43.526;26.534;2023-02-28T11:38:53;100081.94;;;8.70;100.00
10618;BME280;5356;43.526;26.534;2023-02-28T11:46:47;100067.63;;;8.71;100.00
10618;BME280;5356;43.526;26.534;2023-02-28T11:49:35;100064.34;;;8.69;100.00
10618;BME280;5356;43.526;26.534;2023-02-28T11:57:40;100066.28;;;8.61;100.00
10618;BME280;5356;43.526;26.534;2023-02-28T12:00:19;100065.66;;;8.59;100.00
10618;BME280;5356;43.526;26.534;2023-02-28T12:08:03;100063.59;;;8.75;100.00
10618;BME280;5356;43.526;26.534;2023-02-28T12:10:50;100069.38;;;8.79;100.00
10618;BME280;5356;43.526;26.534;2023-02-28T12:13:29;100071.00;;;8.95;100.00
10618;BME280;5356;43.526;26.534;2023-02-28T12:21:42;100081.63;;;8.80;100.00
10618;BME280;5356;43.526;26.534;2023-02-28T12:26:53;100083.16;;;9.04;100.00
10618;BME280;5356;43.526;26.534;2023-02-28T12:29:24;100076.16;;;9.18;100.00
10618;BME280;5356;43.526;26.534;2023-02-28T12:32:03;100084.44;;;9.30;100.00
10618;BME280;5356;43.526;26.534;2023-02-28T12:34:41;100086.34;;;9.36;100.00
10618;BME280;5356;43.526;26.534;2023-02-28T12:37:14;100091.34;;;9.24;100.00
10618;BME280;5356;43.526;26.534;2023-02-28T12:39:48;100089.16;;;9.13;100.00
10618;BME280;5356;43.526;26.534;2023-02-28T12:42:28;100083.41;;;9.09;100.00
10618;BME280;5356;43.526;26.534;2023-02-28T12:45:27;100089.13;;;9.06;100.00
10618;BME280;5356;43.526;26.534;2023-02-28T12:48:01;100088.09;;;9.07;100.00
10618;BME280;5356;43.526;26.534;2023-02-28T12:50:29;100083.09;;;8.97;100.00
10618;BME280;5356;43.526;26.534;2023-02-28T12:53:09;100081.50;;;9.03;100.00
10618;BME280;5356;43.526;26.534;2023-02-28T12:55:50;100070.75;;;9.11;100.00
10618;BME280;5356;43.526;26.534;2023-02-28T12:58:33;100073.59;;;9.10;100.00
10618;BME280;5356;43.526;26.534;2023-02-28T13:01:20;100066.06;;;9.13;100.00
10618;BME280;5356;43.526;26.534;2023-02-28T13:06:44;100070.47;;;8.85;100.00
10618;BME280;5356;43.526;26.534;2023-02-28T13:09:19;100067.78;;;8.85;100.00
10618;BME280;5356;43.526;26.534;2023-02-28T13:11:48;100071.75;;;8.74;100.00
10618;BME280;5356;43.526;26.534;2023-02-28T13:14:29;100075.91;;;8.62;100.00
10618;BME280;5356;43.526;26.534;2023-02-28T13:19:28;100077.25;;;8.58;100.00
10618;BME280;5356;43.526;26.534;2023-02-28T13:21:55;100062.16;;;8.58;100.00
10618;BME280;5356;43.526;26.534;2023-02-28T13:24:43;100059.97;;;8.47;100.00
10618;BME280;5356;43.526;26.534;2023-02-28T13:29:39;100069.41;;;8.49;100.00
10618;BME280;5356;43.526;26.534;2023-02-28T13:35:08;100075.53;;;8.50;100.00
10618;BME280;5356;43.526;26.534;2023-02-28T13:37:35;100071.94;;;8.58;100.00
10618;BME280;5356;43.526;26.534;2023-02-28T13:42:38;100070.22;;;8.65;100.00
10618;BME280;5356;43.526;26.534;2023-02-28T13:47:45;100061.94;;;8.74;100.00
10618;BME280;5356;43.526;26.534;2023-02-28T13:58:54;100069.28;;;8.72;100.00
10618;BME280;5356;43.526;26.534;2023-02-28T14:06:47;100041.94;;;8.42;100.00
10618;BME280;5356;43.526;26.534;2023-02-28T14:11:48;100043.47;;;8.37;100.00
10618;BME280;5356;43.526;26.534;2023-02-28T14:17:12;100053.13;;;8.52;100.00
10618;BME280;5356;43.526;26.534;2023-02-28T14:19:39;100053.38;;;8.43;100.00
10618;BME280;5356;43.526;26.534;2023-02-28T14:41:17;100053.94;;;8.53;100.00
10618;BME280;5356;43.526;26.534;2023-02-28T14:43:53;100057.47;;;8.60;100.00
10618;BME280;5356;43.526;26.534;2023-02-28T14:46:19;100052.75;;;8.56;100.00
10618;BME280;5356;43.526;26.534;2023-02-28T14:51:30;100043.84;;;8.33;100.00
10618;BME280;5356;43.526;26.534;2023-02-28T14:53:59;100047.75;;;8.38;100.00
10618;BME280;5356;43.526;26.534;2023-02-28T14:56:30;100049.78;;;8.36;100.00
10618;BME280;5356;43.526;26.534;2023-02-28T14:58:59;100050.91;;;8.41;100.00
10618;BME280;5356;43.526;26.534;2023-02-28T15:01:26;100055.03;;;8.44;100.00
10618;BME280;5356;43.526;26.534;2023-02-28T15:04:05;100059.69;;;8.42;100.00
10618;BME280;5356;43.526;26.534;2023-02-28T15:06:32;100058.50;;;8.29;100.00
10618;BME280;5356;43.526;26.534;2023-02-28T15:09:17;100065.34;;;8.24;100.00
10618;BME280;5356;43.526;26.534;2023-02-28T15:11:49;100062.50;;;8.25;100.00
10618;BME280;5356;43.526;26.534;2023-02-28T15:14:18;100060.50;;;8.27;100.00
10618;BME280;5356;43.526;26.534;2023-02-28T15:16:48;100051.44;;;8.22;100.00
10618;BME280;5356;43.526;26.534;2023-02-28T15:19:37;100058.66;;;8.28;100.00
10618;BME280;5356;43.526;26.534;2023-02-28T15:22:15;100063.00;;;8.44;100.00
10618;BME280;5356;43.526;26.534;2023-02-28T15:24:46;100074.81;;;8.41;100.00
10618;BME280;5356;43.526;26.534;2023-02-28T15:29:53;100095.31;;;8.47;100.00
10618;BME280;5356;43.526;26.534;2023-02-28T15:32:31;100096.13;;;8.48;100.00
10618;BME280;5356;43.526;26.534;2023-02-28T15:34:58;100100.56;;;8.41;100.00
10618;BME280;5356;43.526;26.534;2023-02-28T15:39:54;100097.06;;;8.55;100.00